Time;durP1;ratioP1;P1;durP2;ratioP2;P2;SDS_P1;SDS_P2;PMS_P1;PMS_P2;Temp;Humidity;BMP_temperature;BMP_pressure;BME280_temperature;BME280_humidity;BME280_pressure;Samples;Min_cycle;Max_cycle;Signal;HPM_P1;HPM_P2
2023/11/27 00:00:46;;;;;;;3.53;3.00;;;;;;;-1.53;100.00;92584.94;2107186;28;20035;-79
2023/11/27 00:01:47;;;;;;;5.05;2.92;;;;;;;-1.41;100.00;92589.19;2121834;27;20140;-81
2023/11/27 00:02:48;;;;;;;4.32;2.75;;;;;;;-1.34;100.00;92591.94;2118387;27;20023;-77
2023/11/27 00:03:49;;;;;;;4.47;3.40;;;;;;;-1.32;100.00;92587.88;2119771;27;20046;-77
2023/11/27 00:04:50;;;;;;;4.00;2.97;;;;;;;-1.38;100.00;92586.63;2119417;27;20037;-81
2023/11/27 00:05:51;;;;;;;3.72;2.90;;;;;;;-1.40;100.00;92583.63;2109903;28;20030;-78
2023/11/27 00:06:52;;;;;;;4.35;3.20;;;;;;;-1.52;100.00;92589.06;2103567;28;20035;-77
2023/11/27 00:07:53;;;;;;;5.28;3.72;;;;;;;-1.46;100.00;92579.78;2111078;28;20019;-78
2023/11/27 00:08:54;;;;;;;3.80;2.53;;;;;;;-1.38;100.00;92585.88;2118757;27;20031;-78
2023/11/27 00:09:55;;;;;;;3.65;2.80;;;;;;;-1.40;100.00;92585.50;2110864;28;20028;-79
2023/11/27 00:10:56;;;;;;;4.07;3.05;;;;;;;-1.58;100.00;92593.06;2111784;27;20020;-80
2023/11/27 00:11:57;;;;;;;3.28;2.97;;;;;;;-1.52;100.00;92576.72;2119421;27;20023;-77
2023/11/27 00:12:59;;;;;;;2.83;2.53;;;;;;;-1.34;100.00;92587.44;2111317;28;20456;-82
2023/11/27 00:13:59;;;;;;;4.03;3.53;;;;;;;-1.63;100.00;92588.88;2106216;28;20496;-77
2023/11/27 00:15:01;;;;;;;3.83;3.50;;;;;;;-1.47;100.00;92582.75;2109163;28;20035;-79
2023/11/27 00:16:02;;;;;;;4.75;2.80;;;;;;;-1.38;100.00;92575.41;2116167;27;20031;-79
2023/11/27 00:17:04;;;;;;;2.90;1.88;;;;;;;-1.35;100.00;92572.84;2108661;28;20111;-77
2023/11/27 00:18:05;;;;;;;2.20;1.90;;;;;;;-1.30;100.00;92569.16;2107023;28;20028;-76
2023/11/27 00:19:07;;;;;;;3.83;2.40;;;;;;;-1.25;100.00;92565.47;2118851;27;20102;-79
2023/11/27 00:20:09;;;;;;;1.92;1.70;;;;;;;-1.30;100.00;92566.53;2118798;27;20451;-75
2023/11/27 00:21:10;;;;;;;2.90;2.08;;;;;;;-1.40;100.00;92569.78;2103136;28;20023;-77
2023/11/27 00:22:11;;;;;;;1.83;1.73;;;;;;;-1.24;100.00;92567.72;2103632;28;20532;-80
2023/11/27 00:23:12;;;;;;;2.47;2.10;;;;;;;-1.32;100.00;92568.72;2104919;28;20035;-77
2023/11/27 00:24:13;;;;;;;2.38;2.17;;;;;;;-1.19;100.00;92561.41;2112397;27;20019;-80
2023/11/27 00:25:15;;;;;;;5.85;3.42;;;;;;;-1.20;100.00;92560.66;2120796;27;20027;-77
2023/11/27 00:26:16;;;;;;;5.15;3.22;;;;;;;-1.26;100.00;92554.22;2101090;28;20704;-79
2023/11/27 00:27:19;;;;;;;3.05;2.40;;;;;;;-1.05;100.00;92556.38;2093239;28;20390;-77
2023/11/27 00:28:20;;;;;;;2.58;2.10;;;;;;;-1.11;100.00;92553.28;2108254;28;20031;-79
2023/11/27 00:29:21;;;;;;;2.55;1.85;;;;;;;-1.06;100.00;92554.84;2110982;27;20015;-76
2023/11/27 00:30:34;;;;;;;2.70;2.08;;;;;;;-1.18;100.00;92550.59;2117858;27;20027;-80
2023/11/27 00:31:35;;;;;;;2.13;1.92;;;;;;;-1.22;100.00;92549.78;2111796;27;20015;-80
2023/11/27 00:32:36;;;;;;;2.70;2.30;;;;;;;-1.13;100.00;92547.66;2112966;27;20950;-80
2023/11/27 00:33:41;;;;;;;3.15;1.85;;;;;;;-1.17;100.00;92538.97;2120564;27;20491;-80
2023/11/27 00:34:42;;;;;;;2.58;2.00;;;;;;;-1.24;100.00;92546.75;2114786;27;20067;-75
2023/11/27 00:35:42;;;;;;;3.25;1.83;;;;;;;-1.41;100.00;92544.66;2101210;28;20092;-79
2023/11/27 00:36:43;;;;;;;4.10;2.13;;;;;;;-1.25;100.00;92544.50;2104638;28;20067;-78
2023/11/27 00:37:44;;;;;;;3.00;1.85;;;;;;;-1.32;100.00;92538.06;2104398;28;20092;-81
2023/11/27 00:38:45;;;;;;;3.13;2.15;;;;;;;-1.20;100.00;92541.56;2112954;28;20024;-78
2023/11/27 00:39:46;;;;;;;2.80;2.33;;;;;;;-1.39;100.00;92540.56;2099092;28;20128;-77
2023/11/27 00:40:47;;;;;;;2.63;1.90;;;;;;;-1.16;100.00;92537.88;2101554;28;20035;-80
2023/11/27 00:41:48;;;;;;;2.20;1.92;;;;;;;-1.03;100.00;92535.78;2109001;28;20106;-77
2023/11/27 00:42:49;;;;;;;2.45;1.90;;;;;;;-1.16;100.00;92539.72;2101728;28;20463;-76
2023/11/27 00:43:50;;;;;;;2.67;1.90;;;;;;;-1.22;100.00;92536.69;2113689;28;20019;-80
2023/11/27 00:44:51;;;;;;;2.60;2.20;;;;;;;-1.29;100.00;92542.56;2107257;27;20027;-76
2023/11/27 00:46:21;;;;;;;3.45;2.00;;;;;;;-1.25;100.00;92534.75;2106293;28;20012;-79
2023/11/27 00:48:12;;;;;;;2.35;1.85;;;;;;;-1.06;100.00;92533.84;2108219;27;20440;-78
2023/11/27 00:51:23;;;;;;;2.03;1.80;;;;;;;-1.05;100.00;92527.53;2113259;27;20444;-77
2023/11/27 00:58:25;;;;;;;3.22;1.95;;;;;;;-0.96;100.00;92519.38;2107563;28;20028;-80
2023/11/27 00:59:26;;;;;;;1.98;1.73;;;;;;;-0.85;100.00;92520.25;2102557;28;20404;-79
2023/11/27 01:00:27;;;;;;;3.85;1.70;;;;;;;-1.12;100.00;92516.94;2110152;28;20019;-78
2023/11/27 01:01:29;;;;;;;3.70;2.15;;;;;;;-0.93;100.00;92518.66;2098918;28;20055;-77
2023/11/27 01:03:15;;;;;;;3.53;2.00;;;;;;;-0.86;100.00;92516.09;2098132;27;20023;-78
2023/11/27 01:04:19;;;;;;;2.20;1.83;;;;;;;-0.65;100.00;92512.97;2093439;28;20134;-77
2023/11/27 01:05:20;;;;;;;3.90;2.33;;;;;;;-0.67;100.00;92515.19;2102787;28;20469;-80
2023/11/27 01:06:21;;;;;;;4.22;2.40;;;;;;;-0.90;100.00;92517.94;2098815;27;20020;-78
2023/11/27 01:07:22;;;;;;;3.38;2.00;;;;;;;-1.00;100.00;92508.84;2121291;27;20508;-79
2023/11/27 01:08:24;;;;;;;2.60;1.98;;;;;;;-0.95;100.00;92510.41;2102660;27;20468;-77
2023/11/27 01:09:25;;;;;;;2.88;1.90;;;;;;;-0.95;100.00;92519.00;2097759;28;20024;-76
2023/11/27 01:10:26;;;;;;;3.42;2.38;;;;;;;-1.05;100.00;92512.53;2085323;28;20024;-78
2023/11/27 01:11:27;;;;;;;4.70;3.00;;;;;;;-0.98;100.00;92508.47;2104648;27;20111;-78
2023/11/27 01:12:55;;;;;;;3.28;2.10;;;;;;;-1.04;100.00;92508.78;2104967;27;20028;-78
2023/11/27 01:13:56;;;;;;;4.18;2.60;;;;;;;-1.07;100.00;92508.75;2086430;28;20033;-77
2023/11/27 01:14:58;;;;;;;2.00;1.80;;;;;;;-1.12;100.00;92506.44;2088022;28;20028;-79
2023/11/27 01:16:00;;;;;;;3.05;2.63;;;;;;;-1.10;100.00;92499.75;2072243;28;20029;-81
2023/11/27 01:17:01;;;;;;;2.10;1.90;;;;;;;-0.89;100.00;92501.06;2089007;28;20024;-78
2023/11/27 01:18:05;;;;;;;3.13;1.75;;;;;;;-0.83;100.00;92504.91;2099662;28;20052;-77
2023/11/27 01:19:08;;;;;;;3.15;2.22;;;;;;;-0.91;100.00;92492.81;2117484;27;20053;-80
2023/11/27 01:20:10;;;;;;;2.20;2.00;;;;;;;-1.02;100.00;92496.06;2118199;27;20414;-79
2023/11/27 01:27:08;;;;;;;2.65;1.73;;;;;;;-1.24;100.00;92483.81;2108831;28;20028;-79
2023/11/27 01:30:10;;;;;;;2.70;1.42;;;;;;;-1.22;100.00;92473.00;2101856;28;20028;-76
2023/11/27 01:34:01;;;;;;;2.72;1.90;;;;;;;-1.03;100.00;92473.59;2110315;28;20020;-77
2023/11/27 01:35:02;;;;;;;2.70;1.77;;;;;;;-0.91;100.00;92472.59;2098155;28;20031;-79
2023/11/27 01:36:03;;;;;;;2.58;1.55;;;;;;;-0.89;100.00;92472.97;2102609;28;20024;-78
2023/11/27 01:37:04;;;;;;;2.53;1.75;;;;;;;-0.95;100.00;92468.44;2100081;28;20027;-80
2023/11/27 01:38:05;;;;;;;2.25;1.80;;;;;;;-1.04;100.00;92471.31;2110856;27;20639;-77
2023/11/27 01:39:06;;;;;;;3.25;1.83;;;;;;;-1.00;100.00;92466.13;2086596;28;20019;-81
2023/11/27 01:40:10;;;;;;;1.75;1.50;;;;;;;-1.04;100.00;92476.56;2098621;28;20039;-79
2023/11/27 01:41:10;;;;;;;2.10;1.77;;;;;;;-0.91;100.00;92458.72;2108784;28;20383;-75
2023/11/27 01:42:12;;;;;;;2.42;1.90;;;;;;;-0.69;100.00;92463.06;2088381;28;20032;-76
2023/11/27 01:43:16;;;;;;;2.00;1.65;;;;;;;-0.73;100.00;92454.41;2109594;28;20019;-77
2023/11/27 01:44:17;;;;;;;1.92;1.60;;;;;;;-0.76;100.00;92465.63;2097953;28;20245;-78
2023/11/27 01:45:18;;;;;;;2.90;1.88;;;;;;;-0.87;100.00;92456.91;2100116;28;20015;-77
2023/11/27 01:46:27;;;;;;;2.08;1.90;;;;;;;-0.82;100.00;92452.06;2102681;28;20062;-77
2023/11/27 01:47:28;;;;;;;3.78;1.52;;;;;;;-0.99;100.00;92457.13;2098436;28;20027;-77
2023/11/27 01:48:35;;;;;;;2.30;1.83;;;;;;;-0.88;100.00;92458.00;2103239;28;20444;-77
2023/11/27 01:49:38;;;;;;;1.95;1.55;;;;;;;-0.72;100.00;92458.53;2087225;28;20035;-77
2023/11/27 01:50:39;;;;;;;2.47;1.67;;;;;;;-0.74;100.00;92446.91;2098487;28;20015;-77
2023/11/27 01:51:41;;;;;;;2.70;1.70;;;;;;;-0.77;100.00;92441.25;2111744;28;20097;-80
2023/11/27 01:52:42;;;;;;;1.90;1.60;;;;;;;-0.80;100.00;92459.56;2098129;28;20032;-76
2023/11/27 01:53:45;;;;;;;2.67;1.73;;;;;;;-0.72;100.00;92449.91;2102760;28;20111;-78
2023/11/27 01:54:46;;;;;;;1.90;1.52;;;;;;;-0.70;100.00;92452.91;2071872;28;20120;-79
2023/11/27 01:55:47;;;;;;;1.70;1.60;;;;;;;-0.67;100.00;92450.31;2082911;28;20115;-76
2023/11/27 01:56:50;;;;;;;2.10;1.63;;;;;;;-0.73;100.00;92451.78;2102039;28;20024;-80
2023/11/27 01:57:52;;;;;;;1.98;1.77;;;;;;;-0.82;100.00;92449.44;2099804;27;20015;-80
2023/11/27 01:58:57;;;;;;;2.13;1.50;;;;;;;-0.90;100.00;92449.75;2116821;27;20027;-77
2023/11/27 01:59:59;;;;;;;1.70;1.55;;;;;;;-0.78;100.00;92450.25;2088507;28;20028;-78
2023/11/27 02:01:40;;;;;;;2.10;1.60;;;;;;;-0.84;100.00;92437.78;2083018;28;20063;-80
2023/11/27 02:02:45;;;;;;;2.60;1.50;;;;;;;-0.99;100.00;92442.16;2095939;28;20024;-76
2023/11/27 02:03:46;;;;;;;2.40;1.42;;;;;;;-0.87;100.00;92435.91;2109662;28;20032;-77
2023/11/27 02:04:47;;;;;;;1.95;1.65;;;;;;;-0.81;100.00;92431.84;2091868;28;20801;-79
2023/11/27 02:05:48;;;;;;;2.75;2.45;;;;;;;-0.83;100.00;92434.06;2104341;28;20031;-78
2023/11/27 02:06:53;;;;;;;5.25;2.35;;;;;;;-0.81;100.00;92437.09;2090148;28;20456;-77
2023/11/27 02:07:54;;;;;;;2.10;1.90;;;;;;;-0.81;100.00;92429.22;2099199;28;20106;-80
2023/11/27 02:08:56;;;;;;;2.03;1.80;;;;;;;-0.74;100.00;92429.28;2101128;28;20027;-76
2023/11/27 02:09:57;;;;;;;2.20;1.50;;;;;;;-0.68;100.00;92419.22;2093432;27;20483;-79
2023/11/27 02:10:59;;;;;;;2.03;1.58;;;;;;;-0.60;100.00;92426.78;2101077;28;20053;-80
2023/11/27 02:12:00;;;;;;;1.83;1.73;;;;;;;-0.79;100.00;92427.75;2084287;28;20028;-80
2023/11/27 02:13:01;;;;;;;2.63;1.70;;;;;;;-0.70;100.00;92437.16;2101701;28;20020;-79
2023/11/27 02:14:02;;;;;;;1.80;1.52;;;;;;;-0.70;100.00;92426.66;2088198;28;20034;-79
2023/11/27 02:15:04;;;;;;;1.77;1.38;;;;;;;-0.77;100.00;92427.38;2096828;28;20025;-77
2023/11/27 02:16:05;;;;;;;2.25;1.60;;;;;;;-0.90;100.00;92423.50;2111788;28;20054;-76
2023/11/27 02:17:06;;;;;;;3.15;1.75;;;;;;;-0.72;100.00;92436.78;2101519;28;20024;-79
2023/11/27 02:18:08;;;;;;;1.92;1.48;;;;;;;-0.68;100.00;92432.31;2109188;28;20494;-80
2023/11/27 02:19:13;;;;;;;2.00;1.25;;;;;;;-0.59;100.00;92428.28;2098259;28;20367;-77
2023/11/27 02:20:14;;;;;;;2.20;1.70;;;;;;;-0.61;100.00;92422.66;2078638;28;20106;-78
2023/11/27 02:21:17;;;;;;;1.85;1.35;;;;;;;-0.72;100.00;92426.28;2104506;28;20026;-80
2023/11/27 02:22:23;;;;;;;1.50;1.30;;;;;;;-0.79;100.00;92424.34;2088412;28;20028;-76
2023/11/27 02:24:29;;;;;;;;;;;;;;;-1.43;100.00;92432.31;2129250;27;20102;-78
2023/11/27 02:25:29;;;;;;;1.58;1.20;;;;;;;-1.30;100.00;92432.84;2116523;27;19915;-78
2023/11/27 02:26:58;;;;;;;1.50;1.40;;;;;;;-1.43;100.00;92426.31;2110652;28;20024;-75
2023/11/27 02:27:59;;;;;;;1.58;1.35;;;;;;;-1.36;100.00;92421.13;2115534;27;20068;-80
2023/11/27 02:29:03;;;;;;;2.13;1.58;;;;;;;-1.41;100.00;92421.47;2042399;28;20237;-79
2023/11/27 02:30:05;;;;;;;1.50;1.20;;;;;;;-1.28;100.00;92409.63;2011162;27;20032;-77
2023/11/27 02:31:06;;;;;;;3.25;1.38;;;;;;;-1.39;100.00;92419.25;2025514;27;20035;-75
2023/11/27 02:32:07;;;;;;;1.63;1.52;;;;;;;-1.42;100.00;92412.84;2031473;27;20414;-77
2023/11/27 02:33:08;;;;;;;2.72;1.85;;;;;;;-1.34;100.00;92411.06;2030921;28;20071;-77
2023/11/27 02:34:08;;;;;;;2.05;1.50;;;;;;;-1.42;100.00;92406.84;2037974;28;20189;-78
2023/11/27 02:35:09;;;;;;;1.80;1.50;;;;;;;-1.34;100.00;92403.94;2041237;28;24157;-76
2023/11/27 02:36:11;;;;;;;1.70;1.30;;;;;;;-1.45;100.00;92405.69;2046600;28;20031;-77
2023/11/27 02:37:12;;;;;;;1.88;1.50;;;;;;;-1.31;100.00;92399.88;2058194;27;20100;-81
2023/11/27 02:38:13;;;;;;;1.55;1.25;;;;;;;-1.21;100.00;92401.84;2061033;27;20528;-79
2023/11/27 02:39:14;;;;;;;1.40;1.30;;;;;;;-1.19;100.00;92398.84;2058582;28;20427;-75
2023/11/27 02:40:16;;;;;;;1.70;1.40;;;;;;;-1.13;100.00;92402.69;2070135;27;20063;-77
2023/11/27 02:41:17;;;;;;;1.65;1.50;;;;;;;-1.25;100.00;92401.06;2069970;27;20117;-77
2023/11/27 02:42:18;;;;;;;1.25;1.15;;;;;;;-1.23;100.00;92400.69;2071042;28;20081;-79
2023/11/27 02:43:19;;;;;;;2.83;1.38;;;;;;;-1.19;100.00;92396.22;2081794;28;20075;-75
2023/11/27 02:44:20;;;;;;;1.92;1.08;;;;;;;-1.06;100.00;92398.25;2087814;27;20024;-78
2023/11/27 02:45:21;;;;;;;1.20;1.10;;;;;;;-1.00;100.00;92401.31;2104331;27;20034;-78
2023/11/27 02:46:22;;;;;;;2.10;1.20;;;;;;;-1.23;100.00;92401.44;2111158;27;20030;-80
2023/11/27 02:47:23;;;;;;;1.90;1.38;;;;;;;-1.14;100.00;92396.69;2122425;27;20467;-78
2023/11/27 02:48:24;;;;;;;1.42;1.30;;;;;;;-1.21;100.00;92386.13;2124333;27;20030;-76
2023/11/27 02:49:25;;;;;;;1.58;1.48;;;;;;;-1.17;100.00;92386.91;2124716;27;20011;-78
2023/11/27 02:50:26;;;;;;;1.55;1.30;;;;;;;-1.32;100.00;92388.63;2129236;27;20114;-79
2023/11/27 02:51:27;;;;;;;2.30;1.00;;;;;;;-1.18;100.00;92380.16;2129031;27;20441;-78
2023/11/27 02:52:28;;;;;;;2.28;1.30;;;;;;;-1.20;100.00;92385.00;2112278;28;20023;-76
2023/11/27 02:53:29;;;;;;;1.60;1.17;;;;;;;-1.14;100.00;92375.72;2112461;28;20027;-77
2023/11/27 02:54:34;;;;;;;3.28;1.35;;;;;;;-1.15;100.00;92387.28;2121845;27;20015;-79
2023/11/27 02:55:35;;;;;;;1.33;1.20;;;;;;;-1.16;100.00;92380.53;2111347;28;20012;-77
2023/11/27 02:56:36;;;;;;;1.80;0.90;;;;;;;-1.22;100.00;92376.00;2114458;28;20065;-78
2023/11/27 02:57:37;;;;;;;1.45;1.10;;;;;;;-1.14;100.00;92374.94;2121820;27;20019;-78
2023/11/27 02:58:38;;;;;;;2.58;1.25;;;;;;;-1.14;100.00;92375.72;2125512;27;20021;-80
2023/11/27 02:59:39;;;;;;;1.85;1.20;;;;;;;-1.05;100.00;92378.03;2120638;27;20031;-76
2023/11/27 03:00:40;;;;;;;0.93;0.88;;;;;;;-1.15;100.00;92374.19;2126642;27;20452;-79
2023/11/27 03:01:41;;;;;;;1.65;1.10;;;;;;;-1.17;100.00;92378.28;2126934;27;20019;-79
2023/11/27 03:02:45;;;;;;;2.63;1.15;;;;;;;-1.15;100.00;92366.31;2115644;28;20027;-76
2023/11/27 03:03:46;;;;;;;1.27;1.17;;;;;;;-1.11;100.00;92372.34;2111938;27;20073;-80
2023/11/27 03:04:46;;;;;;;2.08;1.83;;;;;;;-1.10;100.00;92362.59;2115528;27;20508;-78
2023/11/27 03:05:47;;;;;;;1.67;1.58;;;;;;;-1.14;100.00;92372.31;2099172;27;20023;-80
2023/11/27 03:06:48;;;;;;;1.80;1.50;;;;;;;-1.13;100.00;92365.97;2002416;28;20023;-76
2023/11/27 03:07:49;;;;;;;2.25;1.60;;;;;;;-1.16;100.00;92367.44;2015280;27;20180;-80
2023/11/27 03:08:50;;;;;;;1.75;1.30;;;;;;;-1.12;100.00;92367.47;2027878;28;21045;-76
2023/11/27 03:09:51;;;;;;;1.50;1.05;;;;;;;-1.12;100.00;92370.84;2034720;27;20563;-77
2023/11/27 03:10:52;;;;;;;1.63;1.25;;;;;;;-1.12;100.00;92360.34;2036532;27;20039;-76
2023/11/27 03:11:53;;;;;;;1.80;1.42;;;;;;;-1.14;100.00;92367.84;2029817;28;23082;-77
2023/11/27 03:12:54;;;;;;;1.90;1.35;;;;;;;-1.08;100.00;92363.03;2043992;28;20027;-79
2023/11/27 03:13:55;;;;;;;2.83;1.42;;;;;;;-1.06;100.00;92358.16;2055250;27;20082;-76
2023/11/27 03:14:56;;;;;;;1.92;1.30;;;;;;;-1.00;100.00;92363.84;2059117;27;20023;-78
2023/11/27 03:15:57;;;;;;;2.60;1.20;;;;;;;-1.07;100.00;92365.28;2062869;27;20023;-78
2023/11/27 03:16:58;;;;;;;2.33;2.13;;;;;;;-1.26;100.00;92357.59;2072266;27;20093;-75
2023/11/27 03:18:30;;;;;;;2.10;1.90;;;;;;;-1.05;100.00;92360.44;2081629;27;20214;-76
2023/11/27 03:19:31;;;;;;;1.98;1.10;;;;;;;-1.07;100.00;92351.41;2088001;28;20110;-79
2023/11/27 03:20:32;;;;;;;1.30;1.20;;;;;;;-0.98;100.00;92354.47;2098381;28;20028;-78
2023/11/27 03:21:34;;;;;;;1.20;1.05;;;;;;;-1.09;100.00;92349.16;2125874;27;20051;-79
2023/11/27 03:22:34;;;;;;;2.20;0.77;;;;;;;-1.03;100.00;92346.94;2123776;27;20015;-77
2023/11/27 03:23:35;;;;;;;1.25;1.15;;;;;;;-1.03;100.00;92352.94;2121099;27;20027;-77
2023/11/27 03:24:36;;;;;;;1.40;1.05;;;;;;;-1.02;100.00;92351.06;2125640;27;20073;-78
2023/11/27 03:25:37;;;;;;;3.35;1.00;;;;;;;-1.04;100.00;92340.94;2123080;27;20031;-78
2023/11/27 03:26:38;;;;;;;2.03;0.80;;;;;;;-1.06;100.00;92343.16;2116949;28;20077;-79
2023/11/27 03:27:40;;;;;;;0.90;0.90;;;;;;;-1.23;100.00;92341.13;2114335;27;20088;-79
2023/11/27 03:28:41;;;;;;;1.45;0.85;;;;;;;-1.23;100.00;92335.91;2113574;28;20060;-75
2023/11/27 03:29:42;;;;;;;1.45;0.80;;;;;;;-1.20;100.00;92340.44;2115832;28;20015;-79
2023/11/27 03:30:43;;;;;;;1.13;0.80;;;;;;;-1.12;100.00;92336.75;2123697;27;20011;-77
2023/11/27 03:31:44;;;;;;;1.38;0.98;;;;;;;-1.12;100.00;92341.25;2123215;27;20033;-77
2023/11/27 03:32:45;;;;;;;1.48;0.77;;;;;;;-1.15;100.00;92334.09;2121353;27;20388;-78
2023/11/27 03:33:46;;;;;;;1.30;0.85;;;;;;;-1.23;100.00;92333.28;2114308;28;20027;-78
2023/11/27 03:34:47;;;;;;;1.13;1.05;;;;;;;-1.24;100.00;92325.78;2116177;27;20103;-79
2023/11/27 03:35:48;;;;;;;2.80;0.88;;;;;;;-1.19;100.00;92326.19;2101701;28;20142;-75
2023/11/27 03:36:50;;;;;;;1.00;0.90;;;;;;;-1.13;100.00;92322.16;2101534;28;20070;-75
2023/11/27 03:37:51;;;;;;;0.82;0.82;;;;;;;-1.18;100.00;92322.47;2120415;27;20446;-80
2023/11/27 03:38:52;;;;;;;2.05;1.00;;;;;;;-1.16;100.00;92322.09;2117208;27;20020;-77
2023/11/27 03:39:52;;;;;;;1.67;0.88;;;;;;;-1.15;100.00;92313.13;2108578;28;20027;-78
2023/11/27 03:40:54;;;;;;;1.30;1.00;;;;;;;-1.11;100.00;92332.25;2109519;27;20098;-78
2023/11/27 03:41:54;;;;;;;1.00;0.80;;;;;;;-1.15;100.00;92329.59;2109282;28;20043;-78
2023/11/27 03:42:55;;;;;;;1.30;0.88;;;;;;;-1.15;100.00;92334.84;2109892;28;20016;-77
2023/11/27 03:43:56;;;;;;;1.25;0.90;;;;;;;-1.17;100.00;92334.47;2116204;27;20051;-78
2023/11/27 03:44:58;;;;;;;2.75;0.95;;;;;;;-1.28;100.00;92331.72;2117788;27;20031;-78
2023/11/27 03:46:00;;;;;;;0.80;0.80;;;;;;;-1.15;100.00;92331.47;2118814;27;20015;-79
2023/11/27 03:47:01;;;;;;;2.15;1.27;;;;;;;-1.07;100.00;92333.81;2119008;27;20034;-78
2023/11/27 03:48:05;;;;;;;2.10;0.93;;;;;;;-1.11;100.00;92330.41;2117561;27;20031;-78
2023/11/27 03:49:06;;;;;;;0.93;0.82;;;;;;;-1.18;100.00;92334.84;2119885;27;20094;-77
2023/11/27 03:50:08;;;;;;;0.98;0.80;;;;;;;-1.11;100.00;92333.00;2118393;27;20098;-75
2023/11/27 03:51:09;;;;;;;2.28;1.10;;;;;;;-1.10;100.00;92334.53;2106837;28;20103;-75
2023/11/27 03:52:10;;;;;;;1.50;1.00;;;;;;;-1.06;100.00;92334.56;2111421;28;20478;-77
2023/11/27 03:53:11;;;;;;;1.90;0.80;;;;;;;-1.24;100.00;92334.41;2114630;28;20019;-79
2023/11/27 03:54:12;;;;;;;1.20;0.80;;;;;;;-1.15;100.00;92324.34;2110363;28;20057;-77
2023/11/27 03:55:13;;;;;;;1.88;1.13;;;;;;;-1.20;100.00;92326.56;2105567;28;20030;-79
2023/11/27 03:56:15;;;;;;;1.55;0.90;;;;;;;-1.36;100.00;92319.69;2114770;28;20032;-78
2023/11/27 03:57:17;;;;;;;1.52;0.80;;;;;;;-1.23;100.00;92324.66;2120711;27;20815;-76
2023/11/27 03:58:18;;;;;;;1.38;0.90;;;;;;;-1.31;100.00;92321.22;2121199;27;20027;-76
2023/11/27 03:59:19;;;;;;;1.33;0.85;;;;;;;-1.35;100.00;92321.19;2110153;28;20016;-78
2023/11/27 04:00:20;;;;;;;2.58;1.08;;;;;;;-1.39;100.00;92314.41;2091763;28;20017;-78
2023/11/27 04:01:21;;;;;;;1.67;1.00;;;;;;;-1.34;100.00;92314.84;2093572;28;20093;-76
2023/11/27 04:02:23;;;;;;;1.85;1.08;;;;;;;-1.31;100.00;92314.13;2110420;28;20104;-81
2023/11/27 04:03:24;;;;;;;1.63;1.10;;;;;;;-1.36;100.00;92311.06;2108498;28;20046;-77
2023/11/27 04:04:25;;;;;;;0.75;0.75;;;;;;;-1.31;100.00;92316.75;2108710;28;20419;-81
2023/11/27 04:05:26;;;;;;;1.98;0.90;;;;;;;-1.34;100.00;92308.84;2121018;27;20073;-81
2023/11/27 04:06:30;;;;;;;1.48;1.10;;;;;;;-1.35;100.00;92318.56;2117108;27;20072;-78
2023/11/27 04:07:31;;;;;;;1.45;1.20;;;;;;;-1.33;100.00;92320.81;2115208;27;20365;-75
2023/11/27 04:08:32;;;;;;;0.98;0.98;;;;;;;-1.33;100.00;92310.34;2116638;27;20028;-79
2023/11/27 04:09:33;;;;;;;1.38;1.08;;;;;;;-1.34;100.00;92314.84;2108065;28;20497;-78
2023/11/27 04:10:34;;;;;;;1.98;1.50;;;;;;;-1.61;100.00;92313.44;2109888;28;20023;-75
2023/11/27 04:11:36;;;;;;;3.03;1.10;;;;;;;-1.45;100.00;92311.34;2115161;27;20023;-76
2023/11/27 04:12:37;;;;;;;2.25;1.70;;;;;;;-1.46;100.00;92307.22;2110411;28;20103;-79
2023/11/27 04:13:38;;;;;;;2.03;1.88;;;;;;;-1.40;100.00;92307.66;2108365;28;20020;-76
2023/11/27 04:14:39;;;;;;;2.10;2.00;;;;;;;-1.49;100.00;92302.72;2109144;28;20445;-78
2023/11/27 04:15:42;;;;;;;3.80;2.00;;;;;;;-1.44;100.00;92301.63;2107228;28;20111;-79
2023/11/27 04:16:43;;;;;;;1.80;1.70;;;;;;;-1.39;100.00;92302.06;2114583;27;20131;-79
2023/11/27 04:17:44;;;;;;;2.65;2.42;;;;;;;-1.42;100.00;92296.78;2117043;27;20411;-77
2023/11/27 04:18:45;;;;;;;1.83;1.20;;;;;;;-1.61;100.00;92301.09;2114513;27;20030;-76
2023/11/27 04:19:46;;;;;;;2.50;0.98;;;;;;;-1.47;100.00;92291.88;2115345;27;20110;-77
2023/11/27 04:20:47;;;;;;;1.10;1.00;;;;;;;-1.32;100.00;92288.25;2115740;27;20032;-77
2023/11/27 04:21:48;;;;;;;1.20;1.08;;;;;;;-1.31;100.00;92287.91;2112855;27;20051;-79
2023/11/27 04:22:49;;;;;;;1.30;1.20;;;;;;;-1.44;100.00;92288.53;2111934;27;20425;-79
2023/11/27 04:23:50;;;;;;;1.10;1.00;;;;;;;-1.52;100.00;92285.84;2106692;28;20039;-78
2023/11/27 04:24:52;;;;;;;1.30;1.20;;;;;;;-1.59;100.00;92285.75;2108940;28;20526;-78
2023/11/27 04:25:53;;;;;;;2.65;1.10;;;;;;;-1.50;100.00;92284.72;2117335;27;20966;-78
2023/11/27 04:26:55;;;;;;;1.52;1.00;;;;;;;-1.44;100.00;92288.53;2109449;28;20082;-79
2023/11/27 04:27:56;;;;;;;1.30;0.90;;;;;;;-1.38;100.00;92282.59;2096926;28;20111;-80
2023/11/27 04:28:57;;;;;;;1.05;0.95;;;;;;;-1.36;100.00;92276.97;2100537;28;20024;-79
2023/11/27 04:29:59;;;;;;;3.00;1.17;;;;;;;-1.42;100.00;92278.44;2100233;28;20024;-77
2023/11/27 04:31:00;;;;;;;1.58;1.05;;;;;;;-1.66;100.00;92279.72;2116276;27;20102;-76
2023/11/27 04:32:01;;;;;;;2.80;1.10;;;;;;;-1.48;100.00;92283.25;2109880;28;20016;-79
2023/11/27 04:33:02;;;;;;;1.20;0.90;;;;;;;-1.43;100.00;92269.81;2108662;28;20031;-77
2023/11/27 04:34:03;;;;;;;1.50;1.10;;;;;;;-1.36;100.00;92275.13;2100099;28;20461;-78
2023/11/27 04:35:04;;;;;;;2.15;1.30;;;;;;;-1.29;100.00;92275.19;2098885;28;20051;-76
2023/11/27 04:36:06;;;;;;;2.15;1.10;;;;;;;-1.25;100.00;92271.84;2107831;28;20035;-77
2023/11/27 04:37:07;;;;;;;1.58;1.05;;;;;;;-1.32;100.00;92270.69;2120137;27;20464;-78
2023/11/27 04:38:08;;;;;;;1.42;1.10;;;;;;;-1.25;100.00;92262.09;2117861;27;20487;-77
2023/11/27 04:39:14;;;;;;;1.92;1.25;;;;;;;-1.28;100.00;92263.56;2107627;28;20706;-77
2023/11/27 04:40:15;;;;;;;2.13;1.33;;;;;;;-1.33;100.00;92266.53;2105471;27;20090;-80
2023/11/27 04:41:19;;;;;;;1.38;1.17;;;;;;;-1.34;100.00;92267.66;2114008;27;20023;-76
2023/11/27 04:42:20;;;;;;;3.10;1.60;;;;;;;-1.36;100.00;92276.97;2107557;28;20024;-80
2023/11/27 04:43:25;;;;;;;2.75;1.63;;;;;;;-1.33;100.00;92269.16;2091170;28;20069;-76
2023/11/27 04:44:26;;;;;;;2.67;1.80;;;;;;;-1.31;100.00;92274.06;2099460;28;20013;-78
2023/11/27 04:45:27;;;;;;;2.33;2.13;;;;;;;-1.31;100.00;92272.19;2116689;27;20046;-76
2023/11/27 04:46:28;;;;;;;2.40;1.77;;;;;;;-1.19;100.00;92270.38;2117527;27;20057;-79
2023/11/27 04:47:30;;;;;;;3.20;1.48;;;;;;;-1.14;100.00;92265.59;2114046;27;20015;-76
2023/11/27 04:48:30;;;;;;;1.60;1.13;;;;;;;-1.27;100.00;92267.72;2104504;28;20693;-78
2023/11/27 04:49:31;;;;;;;1.85;1.48;;;;;;;-1.28;100.00;92265.44;2106924;28;20027;-78
2023/11/27 04:50:34;;;;;;;1.35;1.25;;;;;;;-1.29;100.00;92266.56;2109505;28;20027;-77
2023/11/27 04:51:35;;;;;;;2.78;1.45;;;;;;;-1.32;100.00;92260.19;2098561;28;20042;-79
2023/11/27 04:52:36;;;;;;;3.47;1.33;;;;;;;-1.35;100.00;92263.53;2107949;28;20076;-78
2023/11/27 04:53:37;;;;;;;2.17;1.58;;;;;;;-1.31;100.00;92261.69;2116923;27;20456;-75
2023/11/27 04:54:40;;;;;;;2.40;1.60;;;;;;;-1.37;100.00;92270.25;2116891;27;20098;-75
2023/11/27 04:55:42;;;;;;;1.55;1.35;;;;;;;-1.25;100.00;92267.34;2116994;27;20030;-78
2023/11/27 04:56:44;;;;;;;1.50;1.40;;;;;;;-1.27;100.00;92272.97;2106782;28;20020;-75
2023/11/27 04:57:46;;;;;;;2.40;1.42;;;;;;;-1.22;100.00;92260.66;2109244;27;20024;-76
2023/11/27 04:58:47;;;;;;;3.47;2.20;;;;;;;-1.27;100.00;92266.97;2107401;28;20032;-79
2023/11/27 04:59:48;;;;;;;3.05;1.80;;;;;;;-1.22;100.00;92264.00;2109165;28;20027;-78
2023/11/27 05:00:49;;;;;;;2.40;2.20;;;;;;;-1.19;100.00;92268.50;2107022;28;20023;-79
2023/11/27 05:01:50;;;;;;;3.28;2.67;;;;;;;-1.22;100.00;92273.75;2106891;28;20353;-79
2023/11/27 05:02:51;;;;;;;2.95;2.55;;;;;;;-1.15;100.00;92271.16;2117293;27;20102;-76
2023/11/27 05:03:52;;;;;;;2.92;2.55;;;;;;;-1.16;100.00;92272.28;2115322;27;20471;-77
2023/11/27 05:04:53;;;;;;;2.85;1.65;;;;;;;-1.40;100.00;92260.50;2106836;28;20853;-79
2023/11/27 05:05:58;;;;;;;2.28;2.00;;;;;;;-1.36;100.00;92262.03;2107961;28;20027;-77
2023/11/27 05:07:00;;;;;;;2.85;1.70;;;;;;;-1.31;100.00;92258.31;2098249;28;20471;-78
2023/11/27 05:08:02;;;;;;;1.77;1.63;;;;;;;-1.36;100.00;92261.25;2099459;28;20035;-78
2023/11/27 05:09:03;;;;;;;1.90;1.70;;;;;;;-1.50;100.00;92261.88;2117964;27;20027;-80
2023/11/27 05:10:06;;;;;;;1.83;1.73;;;;;;;-1.18;100.00;92256.19;2114038;27;20691;-79